createdAt,value
2018-08-10T00:01:08.879Z,21.80
2018-08-10T00:03:38.240Z,22.00
2018-08-10T00:06:07.895Z,22.20
2018-08-10T00:08:37.640Z,22.20
2018-08-10T00:11:07.029Z,22.20
2018-08-10T00:13:36.513Z,22.00
2018-08-10T00:16:05.949Z,21.80
2018-08-10T00:18:35.543Z,21.80
2018-08-10T00:21:05.171Z,21.70
2018-08-10T00:23:34.720Z,21.60
2018-08-10T00:26:04.529Z,21.60
2018-08-10T00:28:34.027Z,21.60
2018-08-10T00:31:03.393Z,21.50
2018-08-10T00:33:32.966Z,21.50
2018-08-10T00:36:02.435Z,21.50
2018-08-10T00:38:31.946Z,21.60
2018-08-10T00:41:01.553Z,21.60
2018-08-10T00:43:30.894Z,22.00
2018-08-10T00:46:00.506Z,22.10
2018-08-10T00:48:30.432Z,21.90
2018-08-10T00:50:59.825Z,21.80
2018-08-10T00:53:29.231Z,21.80
2018-08-10T00:55:58.801Z,21.70
2018-08-10T00:58:28.340Z,21.70
2018-08-10T01:00:58.349Z,21.70
2018-08-10T01:03:27.782Z,21.60
2018-08-10T01:05:58.263Z,21.70
2018-08-10T01:08:27.711Z,21.60
2018-08-10T01:10:56.940Z,21.60
2018-08-10T01:13:26.649Z,21.60
2018-08-10T01:15:56.124Z,21.70
2018-08-10T01:18:25.799Z,22.00
2018-08-10T01:20:56.000Z,21.90
2018-08-10T01:23:25.940Z,21.90
2018-08-10T01:25:55.574Z,21.90
2018-08-10T01:28:25.241Z,21.80
2018-08-10T01:30:54.994Z,21.70
2018-08-10T01:33:24.761Z,21.80
2018-08-10T01:35:54.200Z,21.80
2018-08-10T01:38:23.572Z,21.70
2018-08-10T01:40:52.930Z,21.70
2018-08-10T01:43:22.580Z,21.70
2018-08-10T01:45:52.284Z,21.60
2018-08-10T01:48:21.791Z,21.50
2018-08-10T01:50:51.070Z,21.50
2018-08-10T01:53:20.510Z,21.60
2018-08-10T01:55:50.130Z,22.00
2018-08-10T01:58:19.653Z,22.10
2018-08-10T02:00:48.971Z,22.00
2018-08-10T02:03:18.667Z,21.90
2018-08-10T02:05:48.416Z,21.80
2018-08-10T02:08:17.817Z,21.80
2018-08-10T02:10:47.372Z,21.80
2018-08-10T02:13:16.735Z,21.70
2018-08-10T02:15:46.269Z,21.70
2018-08-10T02:18:15.796Z,21.60
2018-08-10T02:20:45.684Z,21.50
2018-08-10T02:23:15.111Z,21.50
2018-08-10T02:25:44.683Z,21.50
2018-08-10T02:28:13.819Z,21.50
2018-08-10T02:30:43.294Z,21.60
2018-08-10T02:33:12.683Z,21.80
2018-08-10T02:35:42.030Z,21.80
2018-08-10T02:38:11.694Z,21.70
2018-08-10T02:40:41.400Z,21.60
2018-08-10T02:43:10.920Z,21.50
2018-08-10T02:45:40.443Z,21.50
2018-08-10T02:48:09.942Z,21.40
2018-08-10T02:50:39.480Z,21.40
2018-08-10T02:53:09.150Z,21.40
2018-08-10T02:55:38.620Z,21.40
2018-08-10T02:58:08.095Z,21.40
2018-08-10T03:00:37.793Z,21.40
2018-08-10T03:03:07.375Z,21.40
2018-08-10T03:05:36.771Z,21.50
2018-08-10T03:08:06.394Z,21.70
2018-08-10T03:10:36.096Z,21.90
2018-08-10T03:13:05.754Z,21.80
2018-08-10T03:15:35.176Z,21.70
2018-08-10T03:18:04.670Z,21.60
2018-08-10T03:20:34.311Z,21.70
2018-08-10T03:23:03.486Z,21.80
2018-08-10T03:25:32.840Z,21.80
2018-08-10T03:28:02.581Z,21.80
2018-08-10T03:30:32.427Z,21.90
2018-08-10T03:33:01.954Z,21.80
2018-08-10T03:35:31.008Z,21.90
2018-08-10T03:38:00.628Z,21.90
2018-08-10T03:40:30.070Z,21.90
2018-08-10T03:42:59.760Z,22.10
2018-08-10T03:45:29.453Z,22.10
2018-08-10T03:47:59.372Z,22.30
2018-08-10T03:50:28.938Z,22.20
2018-08-10T03:52:58.490Z,22.10
2018-08-10T03:55:27.868Z,22.10
2018-08-10T03:57:57.390Z,22.10
2018-08-10T04:00:26.907Z,22.00
2018-08-10T04:02:56.207Z,22.10
2018-08-10T04:05:25.990Z,22.00
2018-08-10T04:07:55.538Z,22.10
2018-08-10T04:10:25.781Z,22.00
2018-08-10T04:12:55.281Z,22.00
2018-08-10T04:15:25.018Z,22.20
2018-08-10T04:17:54.441Z,22.40
2018-08-10T04:20:23.980Z,22.40
2018-08-10T04:22:53.167Z,22.50
2018-08-10T04:25:22.757Z,22.60
2018-08-10T04:27:52.413Z,22.60
2018-08-10T04:30:21.913Z,22.50
2018-08-10T04:32:52.141Z,22.60
2018-08-10T04:35:21.851Z,22.60
2018-08-10T04:37:51.490Z,22.60
2018-08-10T04:40:20.984Z,22.60
2018-08-10T04:42:50.619Z,22.60
2018-08-10T04:45:20.211Z,22.60
2018-08-10T04:47:50.409Z,22.60
2018-08-10T04:50:19.971Z,22.70
2018-08-10T04:52:49.386Z,22.80
2018-08-10T04:55:18.874Z,22.80
2018-08-10T04:57:48.149Z,23.00
2018-08-10T05:00:18.081Z,23.00
2018-08-10T05:02:47.657Z,23.00
2018-08-10T05:05:17.274Z,23.00
2018-08-10T05:07:46.954Z,23.00
2018-08-10T05:10:16.273Z,23.00
2018-08-10T05:12:45.672Z,23.00
2018-08-10T05:15:15.304Z,23.00
2018-08-10T05:17:44.871Z,23.10
2018-08-10T05:20:14.073Z,23.10
2018-08-10T05:22:43.596Z,23.10
2018-08-10T05:25:13.151Z,23.10
2018-08-10T05:27:42.972Z,23.20
2018-08-10T05:30:12.472Z,23.30
2018-08-10T05:32:41.991Z,23.30
2018-08-10T05:35:11.832Z,23.40
2018-08-10T05:37:41.524Z,23.50
2018-08-10T05:40:12.171Z,23.60
2018-08-10T05:42:41.719Z,23.80
2018-08-10T05:45:11.318Z,23.80
2018-08-10T05:47:40.627Z,23.90
2018-08-10T05:50:10.345Z,24.00
2018-08-10T05:52:39.931Z,24.00
2018-08-10T05:55:09.379Z,24.00
2018-08-10T05:57:39.060Z,23.90
2018-08-10T06:00:09.426Z,23.90
2018-08-10T06:02:39.209Z,24.00
2018-08-10T06:05:08.880Z,24.10
2018-08-10T06:07:39.666Z,24.20
2018-08-10T06:10:10.629Z,24.10
2018-08-10T06:12:41.096Z,24.10
2018-08-10T06:15:11.477Z,24.10
2018-08-10T06:17:41.617Z,24.00
2018-08-10T06:20:12.608Z,24.00
2018-08-10T06:22:42.610Z,24.00
2018-08-10T06:25:11.693Z,24.00
2018-08-10T06:27:41.239Z,24.00
2018-08-10T06:30:12.607Z,24.10
2018-08-10T06:32:41.880Z,24.10
2018-08-10T06:35:11.416Z,24.10
2018-08-10T06:37:40.575Z,24.10
2018-08-10T06:40:10.125Z,24.10
2018-08-10T06:42:39.804Z,24.10
2018-08-10T06:45:09.258Z,24.20
2018-08-10T06:47:40.049Z,24.30
2018-08-10T06:50:13.223Z,24.20
2018-08-10T06:52:42.417Z,24.10
2018-08-10T06:55:11.669Z,24.10
2018-08-10T06:57:41.121Z,24.00
2018-08-10T07:00:10.648Z,24.00
2018-08-10T07:02:40.008Z,24.00
2018-08-10T07:05:10.008Z,23.90
2018-08-10T07:07:39.448Z,23.90
2018-08-10T07:10:09.274Z,23.90
2018-08-10T07:12:38.591Z,24.00
2018-08-10T07:15:07.851Z,24.00
2018-08-10T07:17:37.306Z,24.10
2018-08-10T07:20:07.669Z,24.10
2018-08-10T07:22:37.225Z,24.00
2018-08-10T07:25:06.751Z,23.90
2018-08-10T07:27:36.173Z,23.80
2018-08-10T07:30:08.260Z,23.80
2018-08-10T07:32:37.689Z,23.80
2018-08-10T07:35:07.449Z,23.70
2018-08-10T07:37:36.929Z,23.60
2018-08-10T07:40:06.764Z,23.60
2018-08-10T07:42:36.127Z,23.70
2018-08-10T07:45:06.343Z,23.60
2018-08-10T07:47:36.021Z,23.70
2018-08-10T07:50:05.747Z,23.90
2018-08-10T07:52:35.029Z,24.00
2018-08-10T07:55:04.567Z,24.10
2018-08-10T07:57:33.987Z,24.00
2018-08-10T08:00:03.360Z,24.10
2018-08-10T08:02:32.910Z,24.20
2018-08-10T08:05:02.357Z,24.20
2018-08-10T08:07:32.106Z,24.30
2018-08-10T08:10:01.456Z,24.50
2018-08-10T08:12:31.340Z,24.60
2018-08-10T08:15:00.963Z,24.70
2018-08-10T08:17:30.349Z,24.80
2018-08-10T08:20:00.912Z,24.90
2018-08-10T08:22:30.589Z,25.20
2018-08-10T08:25:00.429Z,25.40
2018-08-10T08:27:29.664Z,25.50
2018-08-10T08:29:59.130Z,25.80
2018-08-10T08:32:28.802Z,25.80
2018-08-10T08:34:58.318Z,26.00
2018-08-10T08:37:27.680Z,26.00
2018-08-10T08:40:08.242Z,26.00
2018-08-10T08:42:37.721Z,26.10
2018-08-10T08:47:15.622Z,26.30
2018-08-10T08:49:45.209Z,26.30
2018-08-10T08:52:15.690Z,26.50
2018-08-10T08:55:08.640Z,26.60
2018-08-10T08:57:38.167Z,26.70
2018-08-10T09:00:13.675Z,26.80
2018-08-10T09:02:43.106Z,26.80
2018-08-10T09:05:12.716Z,26.80
2018-08-10T09:07:42.548Z,27.00
2018-08-10T09:10:15.743Z,27.00
2018-08-10T09:12:45.182Z,27.10
2018-08-10T09:15:16.462Z,27.00
2018-08-10T09:17:45.930Z,27.10
2018-08-10T09:20:15.620Z,27.20
2018-08-10T09:22:45.042Z,27.20
2018-08-10T09:25:16.648Z,27.20
2018-08-10T09:27:46.118Z,27.10
2018-08-10T09:30:17.699Z,26.70
2018-08-10T09:32:47.020Z,26.50
2018-08-10T09:35:16.796Z,26.60
2018-08-10T09:37:48.694Z,26.50
2018-08-10T09:40:22.133Z,26.50
2018-08-10T09:42:51.544Z,26.70
2018-08-10T09:45:20.966Z,26.70
2018-08-10T09:47:51.043Z,26.70
2018-08-10T09:50:20.976Z,26.60
2018-08-10T09:53:00.827Z,26.40
2018-08-10T09:55:34.368Z,26.30
2018-08-10T09:58:05.096Z,26.50
2018-08-10T10:00:40.306Z,26.30
2018-08-10T10:03:18.263Z,26.60
2018-08-10T10:05:48.686Z,26.60
2018-08-10T10:08:18.648Z,26.60
2018-08-10T10:10:47.982Z,26.60
2018-08-10T10:13:17.635Z,26.50
2018-08-10T10:15:47.199Z,26.70
2018-08-10T10:18:17.529Z,26.90
2018-08-10T10:20:48.350Z,27.10
2018-08-10T10:23:17.636Z,27.30
2018-08-10T10:25:48.689Z,26.90
2018-08-10T10:28:18.184Z,27.00
2018-08-10T10:30:47.600Z,27.50
2018-08-10T10:33:17.299Z,27.70
2018-08-10T10:35:46.652Z,27.60
2018-08-10T10:38:16.204Z,27.60
2018-08-10T10:40:46.022Z,27.60
2018-08-10T10:43:15.661Z,27.60
2018-08-10T10:45:45.099Z,27.80
2018-08-10T10:48:14.624Z,27.90
2018-08-10T10:50:44.046Z,27.50
2018-08-10T10:53:13.558Z,27.80
2018-08-10T10:55:42.983Z,28.10
2018-08-10T10:58:12.244Z,28.00
2018-08-10T11:00:41.631Z,28.20
2018-08-10T11:03:10.954Z,28.30
2018-08-10T11:05:40.821Z,28.00
2018-08-10T11:08:11.012Z,28.20
2018-08-10T11:10:41.369Z,28.20
2018-08-10T11:13:11.851Z,28.10
2018-08-10T11:15:41.793Z,28.00
2018-08-10T11:18:11.284Z,28.10
2018-08-10T11:20:41.094Z,27.90
2018-08-10T11:23:10.450Z,28.00
2018-08-10T11:25:39.902Z,27.80
2018-08-10T11:28:09.347Z,27.70
2018-08-10T11:30:38.771Z,27.60
2018-08-10T11:33:08.200Z,27.50
2018-08-10T11:35:37.400Z,28.00
2018-08-10T11:38:06.799Z,27.80
2018-08-10T11:40:36.039Z,28.00
2018-08-10T11:43:05.466Z,27.60
2018-08-10T11:45:34.822Z,27.90
2018-08-10T11:48:04.355Z,28.00
2018-08-10T11:50:35.712Z,28.10
2018-08-10T11:53:05.245Z,28.10
2018-08-10T11:55:34.522Z,28.00
2018-08-10T11:58:04.172Z,27.80
2018-08-10T12:00:33.924Z,27.90
2018-08-10T12:03:03.311Z,27.70
2018-08-10T12:05:32.850Z,27.90
2018-08-10T12:08:02.322Z,27.90
2018-08-10T12:10:31.855Z,28.00
2018-08-10T12:13:01.234Z,28.00
2018-08-10T12:15:30.713Z,27.90
2018-08-10T12:18:00.382Z,27.90
2018-08-10T12:20:29.709Z,27.90
2018-08-10T12:22:59.275Z,27.50
2018-08-10T12:25:28.999Z,27.70
2018-08-10T12:27:58.063Z,27.80
2018-08-10T12:30:27.584Z,27.50
2018-08-10T12:32:56.954Z,27.50
2018-08-10T12:35:26.300Z,27.20
2018-08-10T12:37:55.934Z,27.20
2018-08-10T12:40:25.330Z,27.10
2018-08-10T12:42:54.721Z,27.30
2018-08-10T12:45:23.937Z,27.40
2018-08-10T12:47:53.398Z,27.50
2018-08-10T12:50:23.064Z,27.40
2018-08-10T12:52:53.399Z,27.70
2018-08-10T12:55:22.575Z,27.80
2018-08-10T12:57:51.911Z,27.70
2018-08-10T13:00:21.240Z,27.70
2018-08-10T13:02:50.848Z,27.70
2018-08-10T13:05:20.054Z,27.80
2018-08-10T13:07:51.467Z,27.80
2018-08-10T13:10:21.033Z,27.70
2018-08-10T13:12:51.412Z,27.50
2018-08-10T13:15:21.260Z,27.50
2018-08-10T13:17:50.726Z,27.30
2018-08-10T13:20:21.181Z,27.20
2018-08-10T13:22:50.868Z,27.30
2018-08-10T13:25:19.992Z,27.30
2018-08-10T13:27:49.421Z,27.30
2018-08-10T13:30:18.803Z,27.40
2018-08-10T13:32:48.315Z,27.30
2018-08-10T13:35:17.849Z,27.40
2018-08-10T13:37:47.505Z,27.50
2018-08-10T13:40:17.092Z,27.40
2018-08-10T13:42:46.754Z,27.40
2018-08-10T13:45:16.220Z,27.40
2018-08-10T13:47:45.707Z,27.30
2018-08-10T13:50:16.867Z,27.00
2018-08-10T13:52:47.370Z,27.20
2018-08-10T13:55:18.877Z,27.20
2018-08-10T13:57:49.540Z,27.30
2018-08-10T14:00:22.183Z,27.50
2018-08-10T14:02:53.334Z,27.50
2018-08-10T14:05:23.415Z,27.30
2018-08-10T14:07:54.604Z,27.40
2018-08-10T14:10:24.044Z,27.70
2018-08-10T14:12:53.868Z,27.70
2018-08-10T14:15:23.485Z,27.10
2018-08-10T14:17:52.903Z,27.40
2018-08-10T14:20:22.444Z,27.30
2018-08-10T14:22:52.620Z,27.50
2018-08-10T14:25:22.163Z,27.70
2018-08-10T14:27:51.704Z,27.50
2018-08-10T14:30:20.856Z,27.50
2018-08-10T14:32:50.015Z,27.80
2018-08-10T14:35:19.161Z,27.60
2018-08-10T14:37:48.455Z,27.60
2018-08-10T14:40:17.546Z,27.30
2018-08-10T14:42:46.687Z,27.50
2018-08-10T14:45:16.646Z,27.80
2018-08-10T14:47:45.931Z,27.70
2018-08-10T14:50:16.242Z,27.70
2018-08-10T14:52:45.877Z,27.80
2018-08-10T14:55:16.559Z,27.70
2018-08-10T14:57:46.076Z,27.60
2018-08-10T15:00:18.624Z,27.40
2018-08-10T15:02:48.446Z,27.50
2018-08-10T15:05:18.354Z,27.10
2018-08-10T15:07:47.821Z,26.80
2018-08-10T15:10:18.183Z,26.40
2018-08-10T15:12:48.045Z,26.10
2018-08-10T15:15:19.629Z,26.10
2018-08-10T15:17:49.490Z,26.10
2018-08-10T15:20:20.721Z,26.20
2018-08-10T15:22:50.298Z,26.20
2018-08-10T15:25:19.663Z,26.00
2018-08-10T15:27:48.988Z,26.00
2018-08-10T15:30:19.420Z,26.10
2018-08-10T15:32:48.679Z,26.10
2018-08-10T15:35:47.070Z,26.10
2018-08-10T15:38:18.278Z,26.20
2018-08-10T15:40:47.503Z,26.20
2018-08-10T15:43:16.999Z,26.20
2018-08-10T15:45:46.643Z,26.00
2018-08-10T15:48:16.212Z,25.70
2018-08-10T15:50:45.476Z,25.70
2018-08-10T15:53:15.068Z,25.50
2018-08-10T15:55:44.309Z,25.50
2018-08-10T15:58:13.483Z,25.50
2018-08-10T16:00:43.815Z,25.30
2018-08-10T16:03:15.801Z,25.40
2018-08-10T16:05:45.958Z,25.30
2018-08-10T16:08:15.551Z,25.20
2018-08-10T16:10:45.199Z,25.10
2018-08-10T16:13:14.696Z,25.10
2018-08-10T16:15:44.209Z,25.30
2018-08-10T16:18:13.951Z,25.60
2018-08-10T16:20:43.580Z,25.50
2018-08-10T16:23:13.063Z,25.50
2018-08-10T16:25:42.632Z,25.50
2018-08-10T16:28:12.154Z,25.50
2018-08-10T16:30:41.935Z,25.40
2018-08-10T16:33:11.512Z,25.20
2018-08-10T16:35:41.570Z,25.20
2018-08-10T16:38:12.179Z,24.90
2018-08-10T16:40:41.820Z,24.90
2018-08-10T16:43:11.538Z,24.90
2018-08-10T16:45:40.791Z,24.70
2018-08-10T16:48:10.412Z,24.60
2018-08-10T16:50:39.907Z,24.50
2018-08-10T16:53:09.167Z,24.50
2018-08-10T16:55:38.545Z,24.40
2018-08-10T16:58:08.235Z,24.30
2018-08-10T17:00:37.561Z,24.30
2018-08-10T17:03:07.439Z,24.30
2018-08-10T17:05:37.140Z,24.30
2018-08-10T17:08:06.832Z,24.30
2018-08-10T17:10:36.258Z,24.20
2018-08-10T17:13:05.665Z,24.20
2018-08-10T17:15:35.134Z,24.20
2018-08-10T17:18:04.522Z,24.20
2018-08-10T17:20:33.802Z,24.20
2018-08-10T17:23:03.051Z,24.20
2018-08-10T17:25:32.595Z,24.20
2018-08-10T17:28:02.111Z,24.30
2018-08-10T17:30:31.671Z,24.20
2018-08-10T17:33:01.336Z,24.20
2018-08-10T17:35:31.073Z,24.30
2018-08-10T17:38:00.484Z,24.10
2018-08-10T17:40:29.781Z,24.00
2018-08-10T17:42:59.179Z,23.90
2018-08-10T17:45:29.034Z,23.60
2018-08-10T17:47:59.183Z,23.50
2018-08-10T17:50:29.959Z,23.40
2018-08-10T17:52:59.492Z,23.30
2018-08-10T17:55:28.901Z,23.40
2018-08-10T17:57:58.671Z,23.30
2018-08-10T18:00:29.184Z,23.40
2018-08-10T18:02:58.632Z,23.40
2018-08-10T18:05:28.071Z,23.30
2018-08-10T18:07:58.412Z,23.40
2018-08-10T18:10:27.945Z,23.40
2018-08-10T18:12:57.670Z,23.20
2018-08-10T18:15:27.309Z,23.20
2018-08-10T18:17:56.943Z,23.20
2018-08-10T18:20:26.607Z,23.10
2018-08-10T18:22:56.294Z,23.20
2018-08-10T18:25:26.451Z,22.90
2018-08-10T18:27:56.450Z,22.80
2018-08-10T18:30:26.861Z,22.70
2018-08-10T18:32:56.209Z,22.60
2018-08-10T18:35:25.633Z,22.50
2018-08-10T18:37:55.194Z,22.60
2018-08-10T18:40:24.883Z,22.50
2018-08-10T18:42:54.497Z,22.30
2018-08-10T18:45:24.015Z,22.20
2018-08-10T18:47:53.482Z,22.10
2018-08-10T18:50:23.159Z,22.10
2018-08-10T18:52:52.492Z,22.10
2018-08-10T18:55:23.149Z,22.00
2018-08-10T18:57:53.066Z,22.00
2018-08-10T19:00:26.440Z,22.00
2018-08-10T19:02:56.359Z,21.80
2018-08-10T19:05:25.926Z,21.90
2018-08-10T19:07:55.270Z,21.90
2018-08-10T19:10:25.972Z,21.80
2018-08-10T19:12:56.613Z,21.70
2018-08-10T19:15:26.084Z,21.70
2018-08-10T19:17:55.504Z,21.60
2018-08-10T19:20:25.091Z,21.70
2018-08-10T19:22:54.613Z,21.60
2018-08-10T19:25:24.248Z,21.50
2018-08-10T19:27:53.656Z,21.40
2018-08-10T19:30:24.528Z,21.30
2018-08-10T19:32:54.321Z,21.20
2018-08-10T19:35:23.902Z,21.20
2018-08-10T19:37:53.942Z,21.20
2018-08-10T19:40:23.549Z,21.20
2018-08-10T19:42:53.209Z,21.10
2018-08-10T19:45:23.316Z,20.90
2018-08-10T19:47:53.357Z,20.90
2018-08-10T19:50:25.056Z,20.70
2018-08-10T19:52:54.820Z,20.70
2018-08-10T19:55:24.193Z,20.60
2018-08-10T19:57:54.063Z,20.60
2018-08-10T20:00:23.478Z,20.50
2018-08-10T20:02:53.173Z,20.60
2018-08-10T20:05:23.580Z,20.60
2018-08-10T20:07:53.181Z,20.60
2018-08-10T20:10:22.610Z,20.40
2018-08-10T20:12:52.285Z,20.40
2018-08-10T20:15:21.979Z,20.40
2018-08-10T20:17:51.666Z,20.40
2018-08-10T20:20:21.149Z,20.30
2018-08-10T20:22:50.975Z,20.30
2018-08-10T20:25:20.764Z,20.20
2018-08-10T20:27:50.581Z,20.00
2018-08-10T20:30:20.124Z,20.00
2018-08-10T20:32:49.584Z,19.90
2018-08-10T20:35:20.496Z,19.90
2018-08-10T20:37:50.253Z,19.80
2018-08-10T20:40:20.957Z,19.90
2018-08-10T20:42:51.056Z,20.00
2018-08-10T20:45:20.983Z,19.80
2018-08-10T20:47:51.403Z,19.80
2018-08-10T20:50:24.007Z,19.70
2018-08-10T20:52:53.567Z,19.60
2018-08-10T20:55:23.015Z,19.50
2018-08-10T20:57:52.398Z,19.50
2018-08-10T21:00:21.921Z,19.40
2018-08-10T21:02:51.601Z,19.40
2018-08-10T21:05:21.272Z,19.30
2018-08-10T21:07:50.941Z,19.30
2018-08-10T21:10:20.340Z,19.30
2018-08-10T21:12:49.915Z,19.20
2018-08-10T21:15:19.323Z,19.20
2018-08-10T21:17:48.858Z,19.20
2018-08-10T21:20:18.771Z,19.10
2018-08-10T21:22:48.304Z,19.10
2018-08-10T21:25:17.722Z,19.10
2018-08-10T21:27:47.131Z,19.10
2018-08-10T21:30:19.415Z,19.00
2018-08-10T21:32:49.620Z,19.00
2018-08-10T21:35:19.130Z,18.90
2018-08-10T21:37:48.997Z,18.80
2018-08-10T21:40:18.661Z,18.80
2018-08-10T21:42:47.890Z,18.80
2018-08-10T21:45:17.103Z,18.70
2018-08-10T21:47:46.650Z,18.70
2018-08-10T21:50:16.253Z,18.70
2018-08-10T21:52:46.457Z,18.70
2018-08-10T21:55:15.780Z,18.70
2018-08-10T21:57:45.480Z,18.60
2018-08-10T22:00:25.114Z,18.60
2018-08-10T22:02:54.431Z,18.50
2018-08-10T22:05:24.100Z,18.50
2018-08-10T22:07:53.782Z,18.40
2018-08-10T22:10:23.341Z,18.50
2018-08-10T22:12:53.041Z,18.50
2018-08-10T22:15:27.852Z,18.50
2018-08-10T22:18:02.546Z,18.40
2018-08-10T22:20:31.868Z,18.40
2018-08-10T22:23:01.632Z,18.40
2018-08-10T22:25:30.895Z,18.40
2018-08-10T22:28:00.452Z,18.40
2018-08-10T22:30:31.327Z,18.40
2018-08-10T22:33:01.055Z,18.30
2018-08-10T22:35:30.754Z,18.30
2018-08-10T22:37:59.830Z,18.30
2018-08-10T22:40:29.541Z,18.40
2018-08-10T22:42:58.915Z,18.40
2018-08-10T22:45:28.620Z,18.30
2018-08-10T22:47:58.253Z,18.20
2018-08-10T22:50:27.644Z,18.30
2018-08-10T22:52:57.291Z,18.30
2018-08-10T22:55:26.828Z,18.20
2018-08-10T22:57:56.327Z,18.10
2018-08-10T23:00:25.859Z,18.10
2018-08-10T23:02:55.474Z,18.00
2018-08-10T23:05:24.816Z,18.00
2018-08-10T23:07:54.329Z,18.00
2018-08-10T23:10:23.583Z,18.00
2018-08-10T23:12:53.233Z,18.00
2018-08-10T23:15:23.303Z,18.00
2018-08-10T23:17:52.742Z,17.90
2018-08-10T23:20:22.197Z,17.90
2018-08-10T23:22:51.887Z,18.00
2018-08-10T23:25:21.186Z,18.10
2018-08-10T23:27:50.600Z,17.90
2018-08-10T23:30:20.665Z,18.00
2018-08-10T23:32:49.981Z,17.90
2018-08-10T23:35:19.458Z,17.90
2018-08-10T23:37:48.981Z,17.90
2018-08-10T23:40:18.822Z,17.80
2018-08-10T23:42:48.232Z,17.80
2018-08-10T23:45:17.614Z,17.60
2018-08-10T23:47:47.320Z,17.60
2018-08-10T23:50:17.717Z,17.60
2018-08-10T23:52:47.569Z,17.60
2018-08-10T23:55:18.864Z,17.60
2018-08-10T23:57:48.496Z,17.50
